Time;durP1;ratioP1;P1;durP2;ratioP2;P2;SDS_P1;SDS_P2;PMS_P1;PMS_P2;Temp;Humidity;BMP_temperature;BMP_pressure;BME280_temperature;BME280_humidity;BME280_pressure;Samples;Min_cycle;Max_cycle;Signal;HPM_P1;HPM_P2
2022/11/22 00:03:47;;;;;;;2.38;0.70;;;8.00;99.90;;;;;;5015131;28;20510;-87
2022/11/22 00:06:16;;;;;;;2.30;0.65;;;8.00;99.90;;;;;;5020514;28;20025;-85
2022/11/22 00:09:40;;;;;;;;;;;;;;;;;;;;;
2022/11/22 00:12:29;;;;;;;;;;;8.10;99.90;;;;;;5013905;28;20149;-87
2022/11/22 00:18:19;;;;;;;;;;;;;;;;;;;;;
2022/11/22 00:20:44;;;;;;;2.17;0.40;;;8.20;99.90;;;;;;5041306;28;20108;-86
2022/11/22 00:23:27;;;;;;;2.22;0.60;;;8.20;99.90;;;;;;5047330;28;20037;-88
2022/11/22 00:25:53;;;;;;;1.42;0.50;;;8.10;99.90;;;;;;5031383;28;20026;-87
2022/11/22 00:28:38;;;;;;;;;;;;;;;;;;;;;
2022/11/22 00:31:11;;;;;;;3.63;0.60;;;8.00;99.90;;;;;;5041089;28;20105;-89
2022/11/22 00:33:44;;;;;;;2.90;0.68;;;8.10;99.90;;;;;;5033824;28;20037;-90
2022/11/22 01:34:12;;;;;;;1.88;0.60;;;8.30;99.90;;;;;;5063887;28;20048;-88
2022/11/22 01:36:46;;;;;;;2.38;1.05;;;8.30;99.90;;;;;;5028618;28;20037;-87
2022/11/22 01:39:14;;;;;;;4.75;0.70;;;8.30;99.90;;;;;;5043000;28;20029;-89
2022/11/22 01:41:47;;;;;;;2.03;0.60;;;8.30;99.90;;;;;;5062293;28;20033;-89
2022/11/22 01:44:31;;;;;;;3.17;0.88;;;8.30;99.90;;;;;;5049112;28;20480;-88
2022/11/22 01:47:05;;;;;;;3.35;0.68;;;8.30;99.90;;;;;;5043313;28;20025;-87
2022/11/22 01:49:38;;;;;;;3.08;0.50;;;8.30;99.90;;;;;;5068293;28;20029;-88
2022/11/22 01:52:24;;;;;;;;;;;8.30;99.90;;;;;;5031110;28;20120;-89
2022/11/22 01:54:56;;;;;;;1.85;0.47;;;8.30;99.90;;;;;;5042580;28;19912;-90
2022/11/22 01:57:29;;;;;;;3.55;0.70;;;8.20;99.90;;;;;;5043286;28;20071;-88
2022/11/22 02:00:08;;;;;;;2.78;0.75;;;8.30;99.90;;;;;;5039979;28;20052;-88
2022/11/22 02:02:35;;;;;;;2.75;0.73;;;8.30;99.90;;;;;;5021014;28;20029;-88
2022/11/22 02:05:09;;;;;;;3.08;0.60;;;8.30;99.90;;;;;;5041246;28;20040;-87
2022/11/22 02:07:44;;;;;;;1.65;0.57;;;8.30;99.90;;;;;;5047373;28;20025;-87
2022/11/22 02:10:10;;;;;;;1.75;0.50;;;8.30;99.90;;;;;;5041714;28;20024;-87
2022/11/22 02:12:36;;;;;;;1.95;0.57;;;8.20;99.90;;;;;;5060139;28;20021;-81
2022/11/22 02:15:03;;;;;;;2.63;0.60;;;8.30;99.90;;;;;;5041359;28;20041;-81
2022/11/22 02:17:28;;;;;;;2.97;0.55;;;8.30;99.90;;;;;;5058856;28;20163;-81
2022/11/22 02:19:54;;;;;;;2.47;0.40;;;8.30;99.90;;;;;;5059032;28;20068;-81
2022/11/22 02:22:40;;;;;;;4.35;0.75;;;8.30;99.90;;;;;;5045989;28;20021;-81
2022/11/22 02:25:23;;;;;;;1.52;0.63;;;8.30;99.90;;;;;;5047687;28;20025;-81
2022/11/22 02:27:49;;;;;;;2.97;0.93;;;8.30;99.90;;;;;;5053538;28;20021;-81
2022/11/22 02:30:16;;;;;;;2.75;0.70;;;8.30;99.90;;;;;;5044762;28;20490;-81
2022/11/22 02:32:42;;;;;;;2.85;0.90;;;8.30;99.90;;;;;;5025516;28;20029;-82
2022/11/22 02:35:34;;;;;;;2.78;0.50;;;8.30;99.90;;;;;;5058600;28;20056;-82
2022/11/22 02:38:20;;;;;;;3.78;0.52;;;8.30;99.90;;;;;;5067201;28;20045;-82
2022/11/22 02:40:55;;;;;;;3.25;0.73;;;8.30;99.90;;;;;;5067427;28;20028;-83
2022/11/22 02:44:12;;;;;;;;;;;;;;;;;;;;;
2022/11/22 02:50:31;;;;;;;3.25;0.85;;;8.30;99.90;;;;;;4935750;29;20091;-83
2022/11/22 02:58:12;;;;;;;;;;;;;;;;;;;;;
2022/11/22 03:00:58;;;;;;;2.58;0.70;;;8.30;99.90;;;;;;4915609;28;20404;-86
2022/11/22 03:03:55;;;;;;;4.28;1.00;;;8.40;99.90;;;;;;5032309;28;20021;-86
2022/11/22 03:06:21;;;;;;;7.03;1.08;;;8.40;99.90;;;;;;5047389;28;20037;-86
2022/11/22 03:08:57;;;;;;;3.58;0.98;;;8.40;99.90;;;;;;5035894;28;20020;-86
2022/11/22 03:11:26;;;;;;;6.10;1.00;;;8.40;99.90;;;;;;5056971;28;20033;-87
2022/11/22 03:14:18;;;;;;;4.43;0.90;;;8.50;99.90;;;;;;5040999;28;20029;-86
2022/11/22 03:16:45;;;;;;;5.75;1.20;;;8.50;99.90;;;;;;5029791;28;20452;-86
2022/11/22 03:19:11;;;;;;;3.60;0.88;;;8.50;99.90;;;;;;5058899;28;20090;-86
2022/11/22 03:21:38;;;;;;;3.88;0.95;;;8.50;99.90;;;;;;5057631;28;20027;-86
2022/11/22 03:24:04;;;;;;;6.40;1.17;;;8.50;99.90;;;;;;5056097;28;20911;-86
2022/11/22 03:26:30;;;;;;;3.58;0.88;;;8.60;99.90;;;;;;5057620;28;20076;-86
2022/11/22 03:28:56;;;;;;;4.85;1.42;;;8.60;99.90;;;;;;5037418;28;20025;-85
2022/11/22 03:31:21;;;;;;;5.55;1.20;;;8.60;99.90;;;;;;5058268;28;20079;-86
2022/11/22 03:33:47;;;;;;;3.50;0.75;;;8.60;99.90;;;;;;5054007;28;20033;-82
2022/11/22 03:36:13;;;;;;;4.85;1.10;;;8.60;99.90;;;;;;5044205;28;20044;-82
2022/11/22 03:38:38;;;;;;;6.03;1.08;;;8.60;99.90;;;;;;5051660;28;20029;-82
2022/11/22 03:41:04;;;;;;;4.80;1.00;;;8.60;99.90;;;;;;5040149;28;20115;-82
2022/11/22 03:43:30;;;;;;;5.25;1.52;;;8.50;99.90;;;;;;5070809;28;20036;-82
2022/11/22 03:46:30;;;;;;;5.68;1.13;;;8.50;99.90;;;;;;5061863;28;20036;-85
2022/11/22 03:56:07;;;;;;;6.68;0.95;;;8.50;99.90;;;;;;4938138;29;20047;-87
2022/11/22 03:59:14;;;;;;;5.75;1.13;;;8.50;99.90;;;;;;4932217;29;20040;-85
2022/11/22 04:13:21;;;;;;;2.75;0.68;;;8.50;99.90;;;;;;4881199;29;20108;-85
2022/11/22 04:15:59;;;;;;;4.78;1.30;;;8.50;99.90;;;;;;4911630;29;20584;-86
2022/11/22 04:22:59;;;;;;;4.75;1.25;;;8.50;99.90;;;;;;5035992;28;20052;-87
2022/11/22 04:26:04;;;;;;;;;;;;;;;;;;;;;
2022/11/22 04:38:21;;;;;;;4.00;1.15;;;8.50;99.90;;;;;;5001825;28;20324;-89
2022/11/22 04:40:47;;;;;;;6.43;1.15;;;8.50;99.90;;;;;;5006954;28;20038;-88
2022/11/22 05:00:28;;;;;;;4.40;0.77;;;8.50;99.90;;;;;;5049871;28;20408;-88
2022/11/22 05:02:54;;;;;;;6.38;1.13;;;8.50;99.90;;;;;;5046068;28;20028;-88
2022/11/22 05:05:19;;;;;;;5.88;1.50;;;8.50;99.90;;;;;;5055234;28;20082;-87
2022/11/22 05:07:45;;;;;;;5.72;1.02;;;8.50;99.90;;;;;;5041476;28;20036;-88
2022/11/22 05:10:10;;;;;;;3.13;1.05;;;8.40;99.90;;;;;;5041476;28;20032;-87
2022/11/22 05:12:36;;;;;;;4.70;1.45;;;8.40;99.90;;;;;;5061487;28;20040;-87
2022/11/22 05:15:02;;;;;;;9.20;1.27;;;8.50;99.90;;;;;;5059823;28;20024;-88
2022/11/22 05:17:28;;;;;;;6.75;1.45;;;8.50;99.90;;;;;;5049782;28;20497;-88
2022/11/22 05:19:54;;;;;;;5.20;1.30;;;8.50;99.90;;;;;;5047591;28;20029;-88
2022/11/22 05:23:52;;;;;;;8.55;1.23;;;8.50;99.90;;;;;;5065730;28;20055;-88
2022/11/22 05:25:05;;;;;;;3.83;1.10;;;8.50;99.90;;;;;;5058543;28;20059;-84
2022/11/22 05:27:31;;;;;;;6.82;1.00;;;8.50;99.90;;;;;;5042437;28;20029;-84
2022/11/22 05:29:56;;;;;;;4.85;1.30;;;8.50;99.90;;;;;;5045990;28;20032;-83
2022/11/22 05:32:22;;;;;;;5.38;1.10;;;8.50;99.90;;;;;;5061959;28;20037;-84
2022/11/22 05:34:48;;;;;;;6.40;1.30;;;8.50;99.90;;;;;;5042345;28;20087;-83
2022/11/22 05:37:22;;;;;;;3.95;0.93;;;8.50;99.90;;;;;;5042614;28;20076;-84
2022/11/22 05:46:33;;;;;;;4.50;0.82;;;8.60;99.90;;;;;;4993369;28;20029;-88
2022/11/22 05:49:05;;;;;;;5.07;1.02;;;8.50;99.90;;;;;;5034482;28;20025;-86
2022/11/22 05:51:31;;;;;;;5.10;1.10;;;8.60;99.90;;;;;;5065390;28;20032;-87
2022/11/22 06:33:45;;;;;;;3.85;0.90;;;8.60;99.90;;;;;;5077965;28;20051;-88
2022/11/22 06:36:13;;;;;;;2.53;0.57;;;8.60;99.90;;;;;;5066965;28;20033;-87
2022/11/22 06:38:43;;;;;;;5.00;1.00;;;8.60;99.90;;;;;;5060238;28;20036;-88
2022/11/22 06:41:13;;;;;;;3.17;0.60;;;8.60;99.90;;;;;;5066598;28;20025;-89
2022/11/22 06:43:40;;;;;;;3.78;0.73;;;8.50;99.90;;;;;;5069225;28;20017;-88
2022/11/22 06:46:15;;;;;;;3.65;1.00;;;8.50;99.90;;;;;;5068837;28;20021;-89
2022/11/22 06:48:41;;;;;;;5.22;1.40;;;8.50;99.90;;;;;;5079369;28;20020;-80
2022/11/22 06:51:15;;;;;;;4.30;1.20;;;8.50;99.90;;;;;;5078916;28;20047;-79
2022/11/22 07:22:19;;;;;;;2.30;0.93;;;8.40;99.90;;;;;;4815718;29;20042;-79
2022/11/22 07:24:45;;;;;;;3.88;0.77;;;8.50;99.90;;;;;;4829811;29;20038;-80
2022/11/22 07:27:44;;;;;;;;;;;;;;;;;;;;;
2022/11/22 07:30:10;;;;;;;4.90;1.20;;;8.50;99.90;;;;;;4912867;29;20131;-82
2022/11/22 07:32:45;;;;;;;8.00;1.50;;;8.50;99.90;;;;;;4919304;29;20136;-81
2022/11/22 07:35:55;;;;;;;;;;;;;;;;;;;;;
2022/11/22 07:38:21;;;;;;;4.20;1.15;;;8.60;99.90;;;;;;5066031;28;20111;-69
2022/11/22 07:40:47;;;;;;;5.22;1.00;;;8.60;99.90;;;;;;5077015;28;20052;-70
2022/11/22 07:43:12;;;;;;;3.13;1.15;;;8.60;99.90;;;;;;5058027;28;20029;-76
2022/11/22 07:45:38;;;;;;;8.35;1.15;;;8.60;99.90;;;;;;5038808;28;20056;-74
2022/11/22 07:48:04;;;;;;;3.45;0.85;;;8.70;99.90;;;;;;5056955;28;20025;-75
2022/11/22 07:50:30;;;;;;;6.03;1.25;;;8.70;99.90;;;;;;5057594;28;20058;-74
2022/11/22 07:52:59;;;;;;;6.03;1.27;;;8.70;99.90;;;;;;5065327;28;20034;-72
2022/11/22 07:55:26;;;;;;;4.35;0.98;;;8.70;99.90;;;;;;5067701;28;20028;-76
2022/11/22 07:57:58;;;;;;;5.28;1.42;;;8.70;99.90;;;;;;5069893;28;20027;-75
2022/11/22 08:00:23;;;;;;;5.32;1.17;;;8.80;99.90;;;;;;5039963;28;20088;-76
2022/11/22 08:02:49;;;;;;;3.42;0.90;;;8.80;99.90;;;;;;5076167;28;20571;-75
2022/11/22 08:05:16;;;;;;;3.00;0.90;;;8.80;99.90;;;;;;5064992;28;20078;-75
2022/11/22 08:07:46;;;;;;;4.40;1.50;;;8.80;99.90;;;;;;5057549;28;20036;-76
2022/11/22 08:10:12;;;;;;;3.90;1.02;;;8.80;99.90;;;;;;5063721;28;20026;-72
2022/11/22 08:12:37;;;;;;;5.32;1.23;;;8.80;99.90;;;;;;5059021;28;20515;-72
2022/11/22 08:15:03;;;;;;;5.82;1.27;;;8.90;99.90;;;;;;5063886;28;20031;-75
2022/11/22 08:17:29;;;;;;;5.03;1.40;;;8.90;99.90;;;;;;5075512;28;20028;-74
2022/11/22 08:19:55;;;;;;;6.68;0.95;;;8.90;99.90;;;;;;5074525;28;20488;-74
2022/11/22 08:22:20;;;;;;;5.40;0.90;;;8.90;99.90;;;;;;5072097;28;20020;-74
2022/11/22 08:24:46;;;;;;;4.78;1.08;;;8.90;99.90;;;;;;5074806;28;20063;-74
2022/11/22 08:27:11;;;;;;;3.60;1.17;;;8.90;99.90;;;;;;5049561;28;20108;-74
2022/11/22 08:29:37;;;;;;;3.47;0.98;;;9.00;99.90;;;;;;5070033;28;20028;-74
2022/11/22 08:32:03;;;;;;;7.57;0.98;;;9.00;99.90;;;;;;5076534;28;20103;-76
2022/11/22 08:34:28;;;;;;;3.70;1.20;;;9.00;99.90;;;;;;5074585;28;20024;-75
2022/11/22 08:36:54;;;;;;;6.50;1.27;;;9.00;99.90;;;;;;5075347;28;20031;-74
2022/11/22 08:39:21;;;;;;;4.47;1.00;;;9.10;99.90;;;;;;5068447;28;20036;-74
2022/11/22 08:41:47;;;;;;;5.88;0.93;;;9.10;99.90;;;;;;5074272;28;20099;-75
2022/11/22 08:44:12;;;;;;;9.32;1.67;;;9.20;99.90;;;;;;5075867;28;20481;-73
2022/11/22 08:46:38;;;;;;;3.75;1.10;;;9.20;99.90;;;;;;5062956;28;20028;-76
2022/11/22 08:49:05;;;;;;;6.15;1.33;;;9.20;99.90;;;;;;5069839;28;20055;-75
2022/11/22 08:51:32;;;;;;;4.28;0.90;;;9.20;99.90;;;;;;5075593;28;20388;-75
2022/11/22 08:53:59;;;;;;;6.10;1.15;;;9.30;99.90;;;;;;5058344;28;20115;-76
2022/11/22 08:56:24;;;;;;;6.65;1.52;;;9.30;99.90;;;;;;5060981;28;20056;-77
2022/11/22 08:58:50;;;;;;;3.38;0.90;;;9.20;99.90;;;;;;5073356;28;20032;-74
2022/11/22 09:01:17;;;;;;;3.50;0.88;;;9.30;99.90;;;;;;5076509;28;20370;-73
2022/11/22 09:03:44;;;;;;;5.65;1.20;;;9.30;99.90;;;;;;5076572;28;20036;-74
2022/11/22 09:06:15;;;;;;;4.65;0.88;;;9.30;99.90;;;;;;5074631;28;20032;-74
2022/11/22 09:08:41;;;;;;;2.83;0.90;;;9.30;99.90;;;;;;5072719;28;20094;-74
2022/11/22 09:11:15;;;;;;;8.35;1.10;;;9.40;99.90;;;;;;5075755;28;20025;-74
2022/11/22 09:13:41;;;;;;;3.28;1.10;;;9.40;99.90;;;;;;5060113;28;20064;-74
2022/11/22 09:16:16;;;;;;;6.60;1.20;;;9.50;99.90;;;;;;5054852;28;20040;-74
2022/11/22 09:18:42;;;;;;;5.15;1.00;;;9.50;99.90;;;;;;5062906;28;20029;-74
2022/11/22 09:21:14;;;;;;;4.57;0.75;;;9.60;99.90;;;;;;5038122;28;20056;-74
2022/11/22 09:23:41;;;;;;;2.58;0.70;;;9.60;99.90;;;;;;5045268;28;20028;-74
2022/11/22 09:26:09;;;;;;;5.82;1.17;;;9.60;99.90;;;;;;5068280;28;20020;-74
2022/11/22 09:28:35;;;;;;;5.47;1.20;;;9.60;99.90;;;;;;5067583;28;20039;-73
2022/11/22 09:31:06;;;;;;;4.97;1.25;;;9.60;99.90;;;;;;5064881;28;20516;-73
2022/11/22 09:33:34;;;;;;;3.08;0.80;;;9.60;99.90;;;;;;5056476;28;20053;-75
2022/11/22 09:36:01;;;;;;;6.00;1.20;;;9.70;99.90;;;;;;5038164;28;20013;-74
2022/11/22 09:38:29;;;;;;;9.20;1.35;;;9.70;99.90;;;;;;5066641;28;20021;-74
2022/11/22 09:40:54;;;;;;;5.50;1.30;;;9.70;99.90;;;;;;5058937;28;20021;-73
2022/11/22 09:43:32;;;;;;;6.70;1.20;;;9.70;99.90;;;;;;5080478;28;20031;-73
2022/11/22 09:46:07;;;;;;;5.78;1.20;;;9.80;99.90;;;;;;5061006;28;20017;-75
2022/11/22 09:49:07;;;;;;;4.50;1.00;;;9.80;99.90;;;;;;5047456;28;20029;-75
2022/11/22 09:51:43;;;;;;;5.82;1.05;;;9.80;99.90;;;;;;5058043;28;20025;-75
2022/11/22 09:54:18;;;;;;;5.40;1.25;;;9.90;99.90;;;;;;5076265;28;20392;-75
2022/11/22 09:56:44;;;;;;;4.35;1.00;;;10.00;99.90;;;;;;5071955;28;20444;-75
2022/11/22 09:59:09;;;;;;;4.05;1.17;;;10.00;99.90;;;;;;5051733;28;20084;-74
2022/11/22 10:01:44;;;;;;;4.50;1.30;;;10.10;99.90;;;;;;5079804;28;20448;-75
2022/11/22 10:04:32;;;;;;;3.95;1.13;;;10.10;99.90;;;;;;5073460;28;20016;-75
2022/11/22 10:07:06;;;;;;;4.07;1.52;;;10.20;99.90;;;;;;5069850;28;20028;-74
2022/11/22 10:09:38;;;;;;;5.45;1.25;;;10.20;99.90;;;;;;5089677;28;20032;-74
2022/11/22 10:12:18;;;;;;;5.57;1.00;;;10.30;99.90;;;;;;5044472;28;20029;-74
2022/11/22 10:15:01;;;;;;;6.72;1.33;;;10.40;99.90;;;;;;5060654;28;20086;-74
2022/11/22 10:17:36;;;;;;;5.95;1.25;;;10.40;99.90;;;;;;5061312;28;20060;-74
2022/11/22 10:20:15;;;;;;;6.78;1.17;;;10.50;99.90;;;;;;5059198;28;20036;-75
2022/11/22 10:22:40;;;;;;;4.95;1.00;;;10.50;99.90;;;;;;5072041;28;20020;-75
2022/11/22 10:25:37;;;;;;;5.13;0.93;;;10.60;99.90;;;;;;5078203;28;20039;-75
2022/11/22 10:28:21;;;;;;;4.32;1.13;;;10.70;98.20;;;;;;5070233;28;20024;-75
2022/11/22 10:30:59;;;;;;;8.75;1.60;;;10.70;99.00;;;;;;5079841;28;20067;-75
2022/11/22 10:33:46;;;;;;;4.22;1.17;;;10.80;98.90;;;;;;5060887;28;20044;-74
2022/11/22 10:36:29;;;;;;;7.07;1.30;;;10.80;99.20;;;;;;5061223;28;20492;-75
2022/11/22 10:39:08;;;;;;;6.15;1.38;;;10.80;99.50;;;;;;5084280;28;20085;-75
2022/11/22 10:42:01;;;;;;;4.90;1.10;;;10.90;99.80;;;;;;5063129;28;20033;-75
2022/11/22 10:44:46;;;;;;;5.75;1.63;;;10.90;98.70;;;;;;5069275;28;20043;-74
2022/11/22 10:47:36;;;;;;;5.82;1.23;;;11.00;98.70;;;;;;5078764;28;20484;-74
2022/11/22 10:50:21;;;;;;;5.05;1.55;;;11.00;99.20;;;;;;5061991;28;20072;-74
2022/11/22 10:53:35;;;;;;;5.35;1.40;;;11.10;98.70;;;;;;5078458;28;20021;-74
2022/11/22 10:56:10;;;;;;;5.85;1.30;;;11.10;98.30;;;;;;4982465;28;20034;-74
2022/11/22 10:58:38;;;;;;;8.45;1.45;;;11.20;98.90;;;;;;5049785;28;20464;-74
2022/11/22 11:01:31;;;;;;;9.43;1.52;;;11.20;97.50;;;;;;5060110;28;20021;-72
2022/11/22 11:03:59;;;;;;;5.65;1.13;;;11.20;97.60;;;;;;5078132;28;20038;-72
2022/11/22 11:06:27;;;;;;;7.35;1.58;;;11.20;96.90;;;;;;5075809;28;20040;-72
2022/11/22 11:09:00;;;;;;;4.97;1.13;;;11.30;98.20;;;;;;5082154;28;20036;-72
2022/11/22 11:11:27;;;;;;;10.45;1.40;;;11.40;97.20;;;;;;5086761;28;20112;-71
2022/11/22 11:14:14;;;;;;;5.53;0.95;;;11.40;95.20;;;;;;5077812;28;20558;-71
2022/11/22 11:16:40;;;;;;;7.22;1.45;;;11.40;96.70;;;;;;5034490;28;20036;-75
2022/11/22 11:19:14;;;;;;;9.65;1.75;;;11.50;95.80;;;;;;5062024;28;20032;-74
2022/11/22 11:21:40;;;;;;;4.13;1.17;;;11.50;96.00;;;;;;5074664;28;20025;-73
2022/11/22 11:24:12;;;;;;;9.38;1.50;;;11.50;96.50;;;;;;5075370;28;20093;-73
2022/11/22 11:26:40;;;;;;;6.67;1.83;;;11.60;96.50;;;;;;5076883;28;20024;-73
2022/11/22 11:29:18;;;;;;;6.65;1.73;;;11.60;96.30;;;;;;5069412;28;20276;-73
2022/11/22 11:31:48;;;;;;;6.45;1.00;;;11.60;96.80;;;;;;5077484;28;20192;-73
2022/11/22 11:34:20;;;;;;;4.80;1.10;;;11.60;95.10;;;;;;5076554;28;20047;-73
2022/11/22 11:36:46;;;;;;;7.38;1.65;;;11.60;94.30;;;;;;5077624;28;20036;-71
2022/11/22 11:39:23;;;;;;;4.72;1.45;;;11.60;94.80;;;;;;5077816;28;20029;-73
2022/11/22 11:41:49;;;;;;;6.30;0.90;;;11.60;94.70;;;;;;5077819;28;20028;-73
2022/11/22 11:44:34;;;;;;;8.32;1.38;;;11.60;95.00;;;;;;5077647;28;20021;-73
2022/11/22 11:47:01;;;;;;;6.90;1.13;;;11.60;94.90;;;;;;5059628;28;20025;-73
2022/11/22 11:49:29;;;;;;;9.18;1.92;;;11.70;94.50;;;;;;5077866;28;20025;-72
2022/11/22 11:52:00;;;;;;;5.07;1.15;;;11.70;95.40;;;;;;5077358;28;20064;-72
2022/11/22 11:54:37;;;;;;;6.40;1.33;;;11.70;94.70;;;;;;5088790;28;20032;-71
2022/11/22 11:57:09;;;;;;;7.55;1.23;;;11.70;93.20;;;;;;5057586;28;20031;-73
2022/11/22 11:59:37;;;;;;;7.28;1.70;;;11.70;94.20;;;;;;5057229;28;20025;-74
2022/11/22 12:02:32;;;;;;;5.82;1.42;;;11.70;94.50;;;;;;5048388;28;20043;-75
2022/11/22 12:05:29;;;;;;;8.00;1.40;;;11.60;93.50;;;;;;5058213;28;20098;-76
2022/11/22 12:07:55;;;;;;;8.48;1.52;;;11.70;92.90;;;;;;5077331;28;20024;-76
2022/11/22 12:10:54;;;;;;;7.15;1.45;;;11.70;93.50;;;;;;5077339;28;20055;-73
2022/11/22 12:13:28;;;;;;;5.60;1.20;;;11.70;94.20;;;;;;5067567;28;20083;-77
2022/11/22 12:16:02;;;;;;;6.20;1.20;;;11.80;94.10;;;;;;5074230;28;20063;-74
2022/11/22 12:18:49;;;;;;;6.22;1.38;;;11.90;94.50;;;;;;5076394;28;20059;-76
2022/11/22 12:21:40;;;;;;;6.53;1.50;;;11.90;94.00;;;;;;5076161;28;20389;-75
2022/11/22 12:24:11;;;;;;;7.30;1.80;;;11.90;93.40;;;;;;5072934;28;20039;-78
2022/11/22 12:26:37;;;;;;;8.07;1.38;;;12.00;93.80;;;;;;5071092;28;20437;-79
2022/11/22 12:29:03;;;;;;;10.07;1.67;;;12.00;93.70;;;;;;5076583;28;20035;-79
2022/11/22 12:31:48;;;;;;;12.55;1.85;;;12.00;93.90;;;;;;5066160;28;20047;-76
2022/11/22 12:34:17;;;;;;;6.88;1.52;;;12.10;93.90;;;;;;5076104;28;20051;-76
2022/11/22 12:36:49;;;;;;;9.50;1.73;;;12.10;91.90;;;;;;5069707;28;20092;-77
2022/11/22 12:39:19;;;;;;;8.67;1.57;;;12.20;92.40;;;;;;5068584;28;20032;-75
2022/11/22 12:41:47;;;;;;;12.90;2.25;;;12.20;92.00;;;;;;5074136;28;20275;-75
2022/11/22 12:44:17;;;;;;;10.90;1.83;;;12.20;92.00;;;;;;5076370;28;20380;-75
2022/11/22 12:46:49;;;;;;;7.43;1.65;;;12.10;91.80;;;;;;5037054;28;20170;-76
2022/11/22 12:49:31;;;;;;;10.88;1.95;;;12.10;92.30;;;;;;5078844;28;20024;-76
2022/11/22 12:52:09;;;;;;;9.90;1.57;;;12.20;92.30;;;;;;5057434;28;20070;-76
2022/11/22 12:54:47;;;;;;;7.32;1.50;;;12.30;91.60;;;;;;5081433;28;20357;-76
2022/11/22 12:57:21;;;;;;;5.63;1.33;;;12.30;92.10;;;;;;5076139;28;20017;-75
2022/11/22 12:59:57;;;;;;;7.22;1.60;;;12.20;90.40;;;;;;5071183;28;20044;-75
2022/11/22 13:02:31;;;;;;;6.68;1.25;;;12.30;91.30;;;;;;5081056;28;20084;-75
2022/11/22 13:05:05;;;;;;;8.13;1.67;;;12.30;90.30;;;;;;5065199;28;20028;-76
2022/11/22 13:07:54;;;;;;;9.15;1.50;;;12.30;90.10;;;;;;5069589;28;20548;-75
2022/11/22 13:10:43;;;;;;;6.70;1.75;;;12.30;89.40;;;;;;5060574;28;20071;-75
2022/11/22 13:13:23;;;;;;;5.85;1.23;;;12.40;90.00;;;;;;5083454;28;20024;-76
2022/11/22 13:15:52;;;;;;;8.05;1.83;;;12.40;90.60;;;;;;5083654;28;20037;-76
2022/11/22 13:18:18;;;;;;;9.02;1.92;;;12.50;91.30;;;;;;5050625;28;20108;-74
2022/11/22 13:21:04;;;;;;;6.20;1.77;;;12.60;90.50;;;;;;5080947;28;20064;-75
2022/11/22 13:24:07;;;;;;;6.78;1.98;;;12.60;90.80;;;;;;5027656;28;20067;-74
2022/11/22 13:27:04;;;;;;;8.23;1.30;;;12.60;88.60;;;;;;5078507;28;20013;-74
2022/11/22 13:29:33;;;;;;;8.10;1.85;;;12.60;90.00;;;;;;5077558;28;20630;-75
2022/11/22 13:32:22;;;;;;;7.15;1.52;;;12.70;91.30;;;;;;5083732;28;20040;-75
2022/11/22 13:35:06;;;;;;;7.50;1.83;;;12.70;86.30;;;;;;5082503;28;20116;-75
2022/11/22 13:37:44;;;;;;;6.20;1.33;;;12.70;88.90;;;;;;5083706;28;20028;-76
2022/11/22 13:40:15;;;;;;;4.63;1.25;;;12.80;90.60;;;;;;5072062;28;20033;-75
2022/11/22 13:42:41;;;;;;;6.75;1.45;;;12.80;90.50;;;;;;5055887;28;20021;-74
2022/11/22 13:45:22;;;;;;;8.15;1.77;;;12.80;89.60;;;;;;5067678;28;20017;-76
2022/11/22 13:47:47;;;;;;;4.97;1.23;;;12.80;87.00;;;;;;5077591;28;20021;-76
2022/11/22 13:50:52;;;;;;;8.10;1.40;;;12.90;90.10;;;;;;5083308;28;20103;-76
2022/11/22 13:53:18;;;;;;;5.93;1.23;;;12.90;87.20;;;;;;5078195;28;20040;-76
2022/11/22 13:55:44;;;;;;;6.80;1.58;;;13.00;88.60;;;;;;5088848;28;20497;-76
2022/11/22 13:58:38;;;;;;;4.93;1.23;;;12.90;84.70;;;;;;5062511;28;20488;-77
2022/11/22 14:01:33;;;;;;;4.22;1.10;;;12.90;83.80;;;;;;5036467;28;20047;-76
2022/11/22 14:04:19;;;;;;;10.23;1.30;;;13.00;84.90;;;;;;5071386;28;20059;-76
2022/11/22 14:06:49;;;;;;;5.47;1.30;;;13.00;84.00;;;;;;5061894;28;20031;-75
2022/11/22 14:09:43;;;;;;;5.82;1.20;;;13.00;84.80;;;;;;5071706;28;20029;-75
2022/11/22 14:12:27;;;;;;;;;;;13.00;86.30;;;;;;5054220;28;20562;-76
2022/11/22 14:14:59;;;;;;;4.65;1.50;;;13.00;82.00;;;;;;5057941;28;19911;-75
2022/11/22 14:17:55;;;;;;;8.68;1.67;;;12.90;84.80;;;;;;5079493;28;20025;-76
2022/11/22 14:20:41;;;;;;;8.85;1.70;;;12.90;85.90;;;;;;5072359;28;20064;-75
2022/11/22 14:23:36;;;;;;;8.10;1.65;;;12.90;81.80;;;;;;5048356;28;20136;-76
2022/11/22 14:26:20;;;;;;;11.23;1.60;;;12.90;82.40;;;;;;5088495;28;20064;-76
2022/11/22 14:29:23;;;;;;;7.07;1.40;;;12.90;83.40;;;;;;5064991;28;20021;-74
2022/11/22 14:32:03;;;;;;;4.87;1.30;;;12.90;84.30;;;;;;5079495;28;20063;-74
2022/11/22 14:34:29;;;;;;;7.03;1.20;;;12.90;84.40;;;;;;5082939;28;20071;-75
2022/11/22 14:37:14;;;;;;;9.18;1.38;;;12.90;83.10;;;;;;5087350;28;20050;-74
2022/11/22 14:40:13;;;;;;;5.70;1.27;;;12.90;81.30;;;;;;5077915;28;20044;-75
2022/11/22 14:42:47;;;;;;;6.00;1.20;;;12.90;84.10;;;;;;5084970;28;20028;-75
2022/11/22 14:45:16;;;;;;;7.28;1.33;;;12.90;85.30;;;;;;5082080;28;20407;-75
2022/11/22 14:47:51;;;;;;;7.10;1.40;;;12.90;85.80;;;;;;5085133;28;20039;-73
2022/11/22 14:50:28;;;;;;;5.45;1.30;;;12.90;84.20;;;;;;5060717;28;20153;-73
2022/11/22 14:53:19;;;;;;;9.52;1.63;;;12.80;82.40;;;;;;5081421;28;20059;-73
2022/11/22 14:55:46;;;;;;;6.97;1.23;;;12.80;82.10;;;;;;5073054;28;20024;-73
2022/11/22 14:58:21;;;;;;;6.05;1.00;;;12.80;83.80;;;;;;5077907;28;20020;-73
2022/11/22 15:01:34;;;;;;;4.72;1.17;;;12.80;83.10;;;;;;5083119;28;20115;-75
2022/11/22 15:04:23;;;;;;;4.63;0.98;;;12.80;82.30;;;;;;4998024;28;20066;-75
2022/11/22 15:07:06;;;;;;;4.30;1.00;;;12.70;82.30;;;;;;5083287;28;20108;-75
2022/11/22 15:09:56;;;;;;;6.20;1.40;;;12.60;80.20;;;;;;5075344;28;20063;-74
2022/11/22 15:12:33;;;;;;;5.57;0.98;;;12.60;80.10;;;;;;5080523;28;20384;-74
2022/11/22 15:15:08;;;;;;;7.63;1.30;;;12.60;80.90;;;;;;5081903;28;20037;-76
2022/11/22 15:17:36;;;;;;;3.70;1.15;;;12.60;82.50;;;;;;5068195;28;20143;-76
2022/11/22 15:20:03;;;;;;;8.15;1.35;;;12.50;80.90;;;;;;5060355;28;20496;-73
2022/11/22 15:22:29;;;;;;;4.78;1.40;;;12.50;81.30;;;;;;5077843;28;20045;-73
2022/11/22 15:24:57;;;;;;;4.22;1.17;;;12.50;80.60;;;;;;5087479;28;20032;-73
2022/11/22 15:27:34;;;;;;;7.82;1.65;;;12.40;82.10;;;;;;5086999;28;20031;-72
2022/11/22 15:30:16;;;;;;;6.47;1.30;;;12.40;82.40;;;;;;5067017;28;20039;-72
2022/11/22 15:32:43;;;;;;;4.93;1.15;;;12.30;82.40;;;;;;5069413;28;20044;-73
2022/11/22 15:35:29;;;;;;;7.22;1.70;;;12.20;81.30;;;;;;5083938;28;20028;-74
2022/11/22 15:38:02;;;;;;;4.70;1.10;;;12.20;81.00;;;;;;5065823;28;20024;-74
2022/11/22 15:40:35;;;;;;;4.88;1.10;;;12.10;81.30;;;;;;5073757;28;20075;-76
2022/11/22 15:43:02;;;;;;;5.65;1.23;;;12.10;81.80;;;;;;5060062;28;20074;-74
2022/11/22 15:45:29;;;;;;;7.88;1.30;;;12.00;83.90;;;;;;5068526;28;20028;-72
2022/11/22 15:48:00;;;;;;;3.35;1.05;;;12.00;82.70;;;;;;5077620;28;20016;-73
2022/11/22 15:50:25;;;;;;;5.30;1.10;;;11.90;81.10;;;;;;5077895;28;20423;-72
2022/11/22 15:52:54;;;;;;;6.30;1.48;;;11.90;82.40;;;;;;5077361;28;20032;-72
2022/11/22 15:55:23;;;;;;;6.88;1.40;;;11.80;82.10;;;;;;5085166;28;20016;-72
2022/11/22 15:57:53;;;;;;;4.07;1.13;;;11.80;82.00;;;;;;5079215;28;20085;-72
2022/11/22 16:00:25;;;;;;;8.68;1.50;;;11.70;84.80;;;;;;5079122;28;20028;-72
2022/11/22 16:02:54;;;;;;;8.40;1.25;;;11.70;84.00;;;;;;5058806;28;20484;-72
2022/11/22 16:05:35;;;;;;;5.85;1.20;;;11.70;83.30;;;;;;5071500;28;20024;-72
2022/11/22 16:08:02;;;;;;;6.45;1.50;;;11.60;84.20;;;;;;5076621;28;20115;-72
2022/11/22 16:10:36;;;;;;;4.88;1.30;;;11.60;82.30;;;;;;5078984;28;20024;-72
2022/11/22 16:13:12;;;;;;;4.18;1.25;;;11.60;83.80;;;;;;5051610;28;20032;-73
2022/11/22 16:15:38;;;;;;;8.15;1.45;;;11.50;85.40;;;;;;5075368;28;20032;-72
2022/11/22 16:18:26;;;;;;;7.75;1.63;;;11.50;83.60;;;;;;5043071;28;20029;-71
2022/11/22 16:21:17;;;;;;;6.28;1.58;;;11.40;85.10;;;;;;5074363;28;20056;-72
2022/11/22 16:23:46;;;;;;;5.53;1.23;;;11.40;84.90;;;;;;5068402;28;20033;-72
2022/11/22 16:26:18;;;;;;;6.38;1.25;;;11.40;88.00;;;;;;5067815;28;20055;-71
2022/11/22 16:28:48;;;;;;;7.85;1.85;;;11.30;85.30;;;;;;5078973;28;20044;-71
2022/11/22 16:31:30;;;;;;;7.05;1.30;;;11.30;85.60;;;;;;5073952;28;20024;-75
2022/11/22 16:33:57;;;;;;;7.55;1.70;;;11.30;87.80;;;;;;5079645;28;20515;-72
2022/11/22 16:36:26;;;;;;;6.82;1.58;;;11.20;86.30;;;;;;5076482;28;20078;-71
2022/11/22 16:38:52;;;;;;;3.75;0.88;;;11.20;87.10;;;;;;5085567;28;20028;-71
2022/11/22 16:41:20;;;;;;;9.82;1.85;;;11.20;86.60;;;;;;5076669;28;20021;-71
2022/11/22 16:43:59;;;;;;;7.18;1.48;;;11.10;87.00;;;;;;5076488;28;20537;-73
2022/11/22 16:46:24;;;;;;;3.88;1.08;;;11.10;88.60;;;;;;5071301;28;20829;-74
2022/11/22 16:48:50;;;;;;;7.55;1.50;;;11.10;87.00;;;;;;5077023;28;20028;-73
2022/11/22 16:51:21;;;;;;;5.45;1.40;;;11.00;87.50;;;;;;5075969;28;20021;-73
2022/11/22 16:53:49;;;;;;;5.07;1.30;;;11.00;87.70;;;;;;5081913;28;20024;-73
2022/11/22 16:56:19;;;;;;;6.00;1.08;;;11.00;88.30;;;;;;5075139;28;20081;-72